Terminal Aerodrome Forecast
Issued by NWS

Home | Current Version | Previous Version | Text Only | Print | Product List | Glossary On
Versions: 1 2 3 4 5 6 7 8 9 10 11 12 13 14 15 16 17 18 19 20 21 22 23 24 25 26
000
FTUS42 KFFC 041727
TAFFTY
TAF
KFTY 041727Z 0418/0518 VRB05KT P6SM VCSH BKN050 BKN250
      TEMPO 0421/0501 4SM TSRA BKN040CB
     FM050200 19003KT P6SM BKN150 BKN250
     FM050900 23005KT P6SM FEW010 BKN100 BKN250
     FM051500 26007KT P6SM VCSH SCT040 BKN150 BKN250=

USA.gov is the U.S. government's official web portal to all federal, state and local government web resources and services.